createdAt,value
2023-01-29T00:01:47.399Z,8.60
2023-01-29T00:04:00.516Z,8.49
2023-01-29T00:06:16.068Z,8.42
2023-01-29T00:08:29.280Z,8.34
2023-01-29T00:10:42.632Z,8.26
2023-01-29T00:12:56.346Z,8.22
2023-01-29T00:15:11.005Z,8.22
2023-01-29T00:17:24.170Z,8.20
2023-01-29T00:19:37.620Z,8.19
2023-01-29T00:21:51.333Z,8.19
2023-01-29T00:24:04.583Z,8.21
2023-01-29T00:26:18.140Z,8.20
2023-01-29T00:28:32.602Z,8.23
2023-01-29T00:30:45.590Z,8.24
2023-01-29T00:32:58.563Z,8.26
2023-01-29T00:35:17.848Z,8.25
2023-01-29T00:37:31.260Z,8.22
2023-01-29T00:39:48.068Z,8.21
2023-01-29T00:42:17.875Z,8.22
2023-01-29T00:44:47.273Z,8.21
2023-01-29T00:47:01.143Z,8.21
2023-01-29T00:49:15.020Z,8.21
2023-01-29T00:51:28.542Z,8.23
2023-01-29T00:53:41.600Z,8.22
2023-01-29T00:55:55.600Z,8.17
2023-01-29T00:58:09.369Z,8.15
2023-01-29T01:00:25.978Z,8.13
2023-01-29T01:02:55.614Z,8.11
2023-01-29T01:05:15.250Z,8.04
2023-01-29T01:07:28.863Z,7.97
2023-01-29T01:09:59.943Z,7.91
2023-01-29T01:12:13.462Z,7.86
2023-01-29T01:14:26.480Z,7.82
2023-01-29T01:16:39.790Z,7.79
2023-01-29T01:18:53.697Z,7.77
2023-01-29T01:21:07.359Z,7.75
2023-01-29T01:23:20.291Z,7.73
2023-01-29T01:25:33.524Z,7.73
2023-01-29T01:27:46.641Z,7.72
2023-01-29T01:29:59.999Z,7.72
2023-01-29T01:32:13.071Z,7.74
2023-01-29T01:34:28.310Z,7.73
2023-01-29T01:36:41.889Z,7.73
2023-01-29T01:38:55.515Z,7.72
2023-01-29T01:41:08.780Z,7.72
2023-01-29T01:43:21.795Z,7.72
2023-01-29T01:45:36.600Z,7.70
2023-01-29T01:47:54.843Z,7.66
2023-01-29T01:50:13.567Z,7.63
2023-01-29T01:52:28.069Z,7.59
2023-01-29T01:54:41.635Z,7.56
2023-01-29T01:57:06.053Z,7.54
2023-01-29T01:59:21.449Z,7.51
2023-01-29T02:01:34.965Z,7.47
2023-01-29T02:04:09.602Z,7.46
2023-01-29T02:06:40.312Z,7.46
2023-01-29T02:09:16.159Z,7.44
2023-01-29T02:11:30.341Z,7.41
2023-01-29T02:13:44.803Z,7.40
2023-01-29T02:15:57.989Z,7.38
2023-01-29T02:18:12.119Z,7.35
2023-01-29T02:20:30.940Z,7.33
2023-01-29T02:23:19.460Z,7.28
2023-01-29T02:25:54.127Z,7.24
2023-01-29T02:28:24.603Z,7.18
2023-01-29T02:30:41.385Z,7.14
2023-01-29T02:33:03.149Z,7.12
2023-01-29T02:35:29.887Z,7.10
2023-01-29T02:37:53.779Z,7.09
2023-01-29T02:40:16.610Z,7.08
2023-01-29T02:42:38.260Z,7.05
2023-01-29T02:44:59.063Z,7.02
2023-01-29T02:47:21.159Z,6.97
2023-01-29T02:49:41.587Z,6.92
2023-01-29T02:52:04.783Z,6.90
2023-01-29T02:54:25.829Z,6.88
2023-01-29T02:56:46.260Z,6.85
2023-01-29T02:59:04.260Z,6.83
2023-01-29T03:01:24.247Z,6.81
2023-01-29T03:03:41.621Z,6.75
2023-01-29T03:06:03.388Z,6.69
2023-01-29T03:08:20.233Z,6.64
2023-01-29T03:10:38.790Z,6.60
2023-01-29T03:12:56.677Z,6.57
2023-01-29T03:15:18.239Z,6.52
2023-01-29T03:17:51.157Z,6.47
2023-01-29T03:20:07.991Z,6.44
2023-01-29T03:22:23.152Z,6.40
2023-01-29T03:25:01.216Z,6.32
2023-01-29T03:27:35.671Z,6.25
2023-01-29T03:30:09.029Z,6.18
2023-01-29T03:32:42.168Z,6.07
2023-01-29T03:35:01.051Z,5.95
2023-01-29T03:37:17.869Z,5.78
2023-01-29T03:39:32.411Z,5.69
2023-01-29T03:41:51.569Z,5.59
2023-01-29T03:44:16.810Z,5.51
2023-01-29T03:46:35.637Z,5.43
2023-01-29T03:48:57.518Z,5.37
2023-01-29T03:51:22.259Z,5.29
2023-01-29T03:53:42.612Z,5.19
2023-01-29T03:56:03.242Z,5.13
2023-01-29T03:58:25.349Z,5.07
2023-01-29T04:00:42.779Z,5.01
2023-01-29T04:03:05.823Z,4.96
2023-01-29T04:05:19.369Z,4.93
2023-01-29T04:07:49.770Z,4.87
2023-01-29T04:10:08.414Z,4.81
2023-01-29T04:12:30.563Z,4.73
2023-01-29T04:14:44.570Z,4.69
2023-01-29T04:17:01.124Z,4.65
2023-01-29T04:19:22.479Z,4.59
2023-01-29T04:21:38.446Z,4.52
2023-01-29T04:23:51.755Z,4.46
2023-01-29T04:26:28.207Z,4.42
2023-01-29T04:28:57.579Z,4.39
2023-01-29T04:31:15.511Z,4.37
2023-01-29T04:33:41.386Z,4.34
2023-01-29T04:36:07.525Z,4.30
2023-01-29T04:38:34.240Z,4.26
2023-01-29T04:40:54.647Z,4.23
2023-01-29T04:43:12.879Z,4.19
2023-01-29T04:45:34.469Z,4.16
2023-01-29T04:47:58.134Z,4.13
2023-01-29T04:50:20.469Z,4.09
2023-01-29T04:52:46.552Z,4.07
2023-01-29T04:55:07.010Z,4.04
2023-01-29T04:57:26.581Z,4.02
2023-01-29T04:59:45.542Z,3.99
2023-01-29T05:01:59.265Z,3.96
2023-01-29T05:04:16.841Z,3.94
2023-01-29T05:06:31.531Z,3.93
2023-01-29T05:08:45.591Z,3.91
2023-01-29T05:11:01.044Z,3.88
2023-01-29T05:13:17.769Z,3.87
2023-01-29T05:15:37.429Z,3.87
2023-01-29T05:17:50.813Z,3.87
2023-01-29T05:20:04.133Z,3.85
2023-01-29T05:22:23.921Z,3.84
2023-01-29T05:24:39.387Z,3.82
2023-01-29T05:27:10.792Z,3.81
2023-01-29T05:29:25.110Z,3.80
2023-01-29T05:31:38.479Z,3.79
2023-01-29T05:33:52.169Z,3.79
2023-01-29T05:36:06.953Z,3.78
2023-01-29T05:38:20.768Z,3.78
2023-01-29T05:40:34.795Z,3.77
2023-01-29T05:42:47.899Z,3.77
2023-01-29T05:45:00.745Z,3.77
2023-01-29T05:47:14.424Z,3.78
2023-01-29T05:49:28.812Z,3.76
2023-01-29T05:51:41.760Z,3.76
2023-01-29T05:53:54.753Z,3.74
2023-01-29T05:56:09.602Z,3.73
2023-01-29T05:58:22.771Z,3.71
2023-01-29T06:00:35.685Z,3.68
2023-01-29T06:02:48.563Z,3.67
2023-01-29T06:05:01.940Z,3.66
2023-01-29T06:07:15.476Z,3.63
2023-01-29T06:09:28.340Z,3.61
2023-01-29T06:11:42.014Z,3.62
2023-01-29T06:13:55.504Z,3.62
2023-01-29T06:16:11.401Z,3.61
2023-01-29T06:18:25.419Z,3.61
2023-01-29T06:20:38.768Z,3.62
2023-01-29T06:22:51.983Z,3.61
2023-01-29T06:25:04.984Z,3.59
2023-01-29T06:27:21.503Z,3.58
2023-01-29T06:29:34.413Z,3.58
2023-01-29T06:31:47.503Z,3.57
2023-01-29T06:34:00.440Z,3.58
2023-01-29T06:36:14.655Z,3.57
2023-01-29T06:38:27.596Z,3.56
2023-01-29T06:40:41.706Z,3.55
2023-01-29T06:42:54.721Z,3.55
2023-01-29T06:45:07.946Z,3.55
2023-01-29T06:47:20.900Z,3.54
2023-01-29T06:49:34.613Z,3.53
2023-01-29T06:51:47.656Z,3.54
2023-01-29T06:54:01.087Z,3.53
2023-01-29T06:56:14.676Z,3.53
2023-01-29T06:58:28.358Z,3.51
2023-01-29T07:00:41.914Z,3.50
2023-01-29T07:02:57.419Z,3.48
2023-01-29T07:05:11.619Z,3.47
2023-01-29T07:07:24.621Z,3.45
2023-01-29T07:09:37.740Z,3.43
2023-01-29T07:11:50.681Z,3.41
2023-01-29T07:14:03.760Z,3.41
2023-01-29T07:16:16.870Z,3.38
2023-01-29T07:18:30.039Z,3.36
2023-01-29T07:20:44.732Z,3.37
2023-01-29T07:22:57.645Z,3.36
2023-01-29T07:25:13.029Z,3.33
2023-01-29T07:27:25.989Z,3.30
2023-01-29T07:29:40.230Z,3.28
2023-01-29T07:31:53.287Z,3.24
2023-01-29T07:34:06.220Z,3.22
2023-01-29T07:36:19.390Z,3.19
2023-01-29T07:38:32.292Z,3.18
2023-01-29T07:40:45.223Z,3.17
2023-01-29T07:43:08.015Z,3.14
2023-01-29T07:45:21.619Z,3.12
2023-01-29T07:47:35.370Z,3.10
2023-01-29T07:49:49.260Z,3.08
2023-01-29T07:52:06.694Z,3.07
2023-01-29T07:54:20.802Z,3.05
2023-01-29T07:56:34.449Z,3.04
2023-01-29T07:58:47.600Z,3.02
2023-01-29T08:01:00.828Z,3.00
2023-01-29T08:03:17.270Z,2.96
2023-01-29T08:05:31.333Z,2.94
2023-01-29T08:07:49.225Z,2.93
2023-01-29T08:10:04.557Z,2.91
2023-01-29T08:12:18.215Z,2.89
2023-01-29T08:14:31.435Z,2.86
2023-01-29T08:16:44.574Z,2.84
2023-01-29T08:18:58.081Z,2.82
2023-01-29T08:21:13.787Z,2.80
2023-01-29T08:23:27.110Z,2.77
2023-01-29T08:25:40.878Z,2.75
2023-01-29T08:27:54.124Z,2.74
2023-01-29T08:30:07.701Z,2.72
2023-01-29T08:32:21.090Z,2.71
2023-01-29T08:34:35.440Z,2.71
2023-01-29T08:36:50.015Z,2.70
2023-01-29T08:39:03.007Z,2.68
2023-01-29T08:41:16.070Z,2.68
2023-01-29T08:43:29.061Z,2.66
2023-01-29T08:45:44.757Z,2.65
2023-01-29T08:47:58.040Z,2.63
2023-01-29T08:50:12.889Z,2.64
2023-01-29T08:52:26.500Z,2.63
2023-01-29T08:54:40.353Z,2.63
2023-01-29T08:56:53.659Z,2.63
2023-01-29T08:59:07.460Z,2.61
2023-01-29T09:01:21.584Z,2.60
2023-01-29T09:03:34.950Z,2.56
2023-01-29T09:05:48.577Z,2.55
2023-01-29T09:08:02.676Z,2.53
2023-01-29T09:10:17.051Z,2.53
2023-01-29T09:12:30.355Z,2.52
2023-01-29T09:14:43.867Z,2.51
2023-01-29T09:16:57.015Z,2.49
2023-01-29T09:19:11.299Z,2.48
2023-01-29T09:21:25.259Z,2.46
2023-01-29T09:23:38.520Z,2.43
2023-01-29T09:25:51.449Z,2.42
2023-01-29T09:28:04.503Z,2.43
2023-01-29T09:30:19.540Z,2.44
2023-01-29T09:35:06.254Z,2.46
2023-01-29T09:37:21.017Z,2.45
2023-01-29T09:39:34.371Z,2.43
2023-01-29T09:41:56.844Z,2.38
2023-01-29T09:44:20.349Z,2.32
2023-01-29T09:46:34.490Z,2.28
2023-01-29T09:48:50.309Z,2.23
2023-01-29T09:51:06.671Z,2.17
2023-01-29T09:53:28.494Z,2.13
2023-01-29T09:55:46.119Z,2.08
2023-01-29T09:58:01.720Z,2.04
2023-01-29T10:00:22.224Z,2.01
2023-01-29T10:02:59.456Z,1.98
2023-01-29T10:05:39.730Z,1.96
2023-01-29T10:08:19.221Z,1.95
2023-01-29T10:10:45.639Z,1.95
2023-01-29T10:13:11.193Z,1.95
2023-01-29T10:15:39.460Z,1.93
2023-01-29T10:18:12.755Z,1.92
2023-01-29T10:20:48.068Z,1.90
2023-01-29T10:23:11.159Z,1.88
2023-01-29T10:25:26.791Z,1.86
2023-01-29T10:27:42.750Z,1.82
2023-01-29T10:29:58.274Z,1.81
2023-01-29T10:32:15.382Z,1.80
2023-01-29T10:34:35.251Z,1.81
2023-01-29T10:36:51.926Z,1.82
2023-01-29T10:39:05.055Z,1.82
2023-01-29T10:41:46.991Z,1.83
2023-01-29T10:44:15.140Z,1.81
2023-01-29T10:46:38.209Z,1.80
2023-01-29T10:48:57.759Z,1.79
2023-01-29T10:51:18.720Z,1.77
2023-01-29T10:53:44.753Z,1.76
2023-01-29T10:56:21.969Z,1.75
2023-01-29T10:58:42.979Z,1.73
2023-01-29T11:00:56.287Z,1.72
2023-01-29T11:06:00.273Z,1.75
2023-01-29T11:08:17.130Z,1.76
2023-01-29T11:10:30.919Z,1.76
2023-01-29T11:12:45.045Z,1.77
2023-01-29T11:15:02.729Z,1.78
2023-01-29T11:17:20.959Z,1.79
2023-01-29T11:19:45.061Z,1.79
2023-01-29T11:22:02.319Z,1.78
2023-01-29T11:24:18.921Z,1.78
2023-01-29T11:26:31.799Z,1.76
2023-01-29T11:28:46.979Z,1.74
2023-01-29T11:31:00.970Z,1.71
2023-01-29T11:33:21.766Z,1.69
2023-01-29T11:35:37.751Z,1.64
2023-01-29T11:37:52.008Z,1.60
2023-01-29T11:40:05.922Z,1.59
2023-01-29T11:42:28.142Z,1.57
2023-01-29T11:44:44.920Z,1.57
2023-01-29T11:46:58.479Z,1.55
2023-01-29T11:49:23.729Z,1.52
2023-01-29T11:51:37.470Z,1.50
2023-01-29T11:53:54.889Z,1.48
2023-01-29T11:56:19.681Z,1.45
2023-01-29T11:58:36.509Z,1.42
2023-01-29T12:00:54.801Z,1.38
2023-01-29T12:03:16.449Z,1.34
2023-01-29T12:05:30.747Z,1.29
2023-01-29T12:07:50.046Z,1.25
2023-01-29T12:10:04.566Z,1.22
2023-01-29T12:12:37.853Z,1.22
2023-01-29T12:15:05.663Z,1.19
2023-01-29T12:17:25.147Z,1.18
2023-01-29T12:19:43.885Z,1.18
2023-01-29T12:22:04.127Z,1.17
2023-01-29T12:24:33.333Z,1.16
2023-01-29T12:26:53.069Z,1.14
2023-01-29T12:29:17.061Z,1.13
2023-01-29T12:31:38.638Z,1.09
2023-01-29T12:33:57.841Z,1.08
2023-01-29T12:36:17.769Z,1.05
2023-01-29T12:38:31.434Z,1.00
2023-01-29T12:40:51.151Z,0.95
2023-01-29T12:43:09.729Z,0.90
2023-01-29T12:45:27.010Z,0.86
2023-01-29T12:47:45.271Z,0.80
2023-01-29T12:50:01.880Z,0.74
2023-01-29T12:52:21.670Z,0.69
2023-01-29T12:54:43.102Z,0.65
2023-01-29T12:56:59.686Z,0.60
2023-01-29T12:59:21.114Z,0.56
2023-01-29T13:01:40.986Z,0.52
2023-01-29T13:04:00.596Z,0.51
2023-01-29T13:06:17.629Z,0.51
2023-01-29T13:08:34.290Z,0.51
2023-01-29T13:10:52.066Z,0.52
2023-01-29T13:13:08.960Z,0.55
2023-01-29T13:15:29.671Z,0.56
2023-01-29T13:17:47.289Z,0.57
2023-01-29T13:20:03.009Z,0.56
2023-01-29T13:22:25.110Z,0.56
2023-01-29T13:24:49.930Z,0.54
2023-01-29T13:27:22.181Z,0.51
2023-01-29T13:29:36.070Z,0.47
2023-01-29T13:31:54.155Z,0.45
2023-01-29T13:34:17.542Z,0.42
2023-01-29T13:36:34.056Z,0.37
2023-01-29T13:38:48.675Z,0.34
2023-01-29T13:41:05.401Z,0.32
2023-01-29T13:43:26.412Z,0.31
2023-01-29T13:45:46.563Z,0.31
2023-01-29T13:48:11.719Z,0.30
2023-01-29T13:50:33.966Z,0.31
2023-01-29T13:52:49.480Z,0.31
2023-01-29T13:55:07.039Z,0.32
2023-01-29T13:57:55.716Z,0.32
2023-01-29T14:00:10.231Z,0.32
2023-01-29T14:02:31.849Z,0.32
2023-01-29T14:04:45.327Z,0.32
2023-01-29T14:07:00.316Z,0.32
2023-01-29T14:09:51.901Z,0.32
2023-01-29T14:12:05.110Z,0.33
2023-01-29T14:14:47.043Z,0.34
2023-01-29T14:17:06.904Z,0.36
2023-01-29T14:19:25.361Z,0.39
2023-01-29T14:21:40.668Z,0.39
2023-01-29T14:23:56.280Z,0.40
2023-01-29T14:26:22.924Z,0.39
2023-01-29T14:28:38.339Z,0.38
2023-01-29T14:30:54.567Z,0.36
2023-01-29T14:33:09.189Z,0.35
2023-01-29T14:35:27.473Z,0.33
2023-01-29T14:37:42.765Z,0.30
2023-01-29T14:39:58.806Z,0.26
2023-01-29T14:42:26.336Z,0.23
2023-01-29T14:45:12.618Z,0.21
2023-01-29T14:47:47.410Z,0.21
2023-01-29T14:50:02.961Z,0.21
2023-01-29T14:52:18.672Z,0.22
2023-01-29T14:54:35.190Z,0.23
2023-01-29T14:56:58.489Z,0.22
2023-01-29T14:59:21.236Z,0.22
2023-01-29T15:01:38.995Z,0.21
2023-01-29T15:03:54.669Z,0.20
2023-01-29T15:06:09.612Z,0.18
2023-01-29T15:08:31.796Z,0.16
2023-01-29T15:10:49.261Z,0.13
2023-01-29T15:13:08.300Z,0.09
2023-01-29T15:15:28.321Z,0.08
2023-01-29T15:17:49.719Z,0.08
2023-01-29T15:20:26.269Z,0.08
2023-01-29T15:22:48.609Z,0.09
2023-01-29T15:25:17.183Z,0.08
2023-01-29T15:27:32.059Z,0.08
2023-01-29T15:29:47.124Z,0.08
2023-01-29T15:32:01.492Z,0.07
2023-01-29T15:34:15.417Z,0.05
2023-01-29T15:36:31.839Z,0.03
2023-01-29T15:38:45.251Z,0.01
2023-01-29T15:41:03.317Z,-0.00
2023-01-29T15:43:27.819Z,-0.01
2023-01-29T15:45:44.020Z,-0.04
2023-01-29T15:47:58.982Z,-0.04
2023-01-29T15:50:14.843Z,-0.05
2023-01-29T15:52:34.136Z,-0.04
2023-01-29T15:54:47.662Z,-0.02
2023-01-29T15:57:01.152Z,-0.01
2023-01-29T15:59:22.399Z,-0.01
2023-01-29T16:01:35.910Z,-0.03
2023-01-29T16:03:49.850Z,-0.04
2023-01-29T16:06:03.869Z,-0.06
2023-01-29T16:08:20.089Z,-0.09
2023-01-29T16:10:36.120Z,-0.11
2023-01-29T16:12:52.550Z,-0.13
2023-01-29T16:15:07.363Z,-0.13
2023-01-29T16:17:36.479Z,-0.11
2023-01-29T16:19:58.671Z,-0.10
2023-01-29T16:22:12.769Z,-0.08
2023-01-29T16:24:27.549Z,-0.06
2023-01-29T16:26:43.424Z,-0.06
2023-01-29T16:28:56.790Z,-0.05
2023-01-29T16:31:10.396Z,-0.04
2023-01-29T16:33:23.479Z,-0.03
2023-01-29T16:35:36.887Z,0.01
2023-01-29T16:37:54.330Z,0.02
2023-01-29T16:40:33.869Z,0.05
2023-01-29T16:42:48.868Z,0.10
2023-01-29T16:45:04.446Z,0.14
2023-01-29T16:47:27.428Z,0.16
2023-01-29T16:49:56.810Z,0.19
2023-01-29T16:52:24.047Z,0.21
2023-01-29T16:54:37.210Z,0.23
2023-01-29T16:56:51.820Z,0.24
2023-01-29T16:59:07.100Z,0.26
2023-01-29T17:01:24.484Z,0.28
2023-01-29T17:03:40.847Z,0.30
2023-01-29T17:05:54.202Z,0.31
2023-01-29T17:08:07.964Z,0.34
2023-01-29T17:10:24.887Z,0.37
2023-01-29T17:12:39.036Z,0.40
2023-01-29T17:15:02.204Z,0.43
2023-01-29T17:17:21.855Z,0.47
2023-01-29T17:19:35.559Z,0.51
2023-01-29T17:21:49.296Z,0.56
2023-01-29T17:24:02.323Z,0.60
2023-01-29T17:26:17.686Z,0.64
2023-01-29T17:28:31.739Z,0.68
2023-01-29T17:30:56.701Z,0.72
2023-01-29T17:33:23.079Z,0.76
2023-01-29T17:35:36.621Z,0.80
2023-01-29T17:37:51.650Z,0.83
2023-01-29T17:40:05.464Z,0.86
2023-01-29T17:42:20.856Z,0.88
2023-01-29T17:44:33.898Z,0.90
2023-01-29T17:46:47.274Z,0.93
2023-01-29T17:49:00.424Z,0.95
2023-01-29T17:51:17.798Z,0.98
2023-01-29T17:53:45.509Z,1.02
2023-01-29T17:55:59.092Z,1.07
2023-01-29T17:58:14.415Z,1.11
2023-01-29T18:00:28.428Z,1.14
2023-01-29T18:02:41.372Z,1.18
2023-01-29T18:04:56.489Z,1.23
2023-01-29T18:07:10.822Z,1.29
2023-01-29T18:09:25.829Z,1.33
2023-01-29T18:11:39.803Z,1.38
2023-01-29T18:13:52.996Z,1.42
2023-01-29T18:16:06.649Z,1.45
2023-01-29T18:18:22.973Z,1.49
2023-01-29T18:20:39.750Z,1.52
2023-01-29T18:22:52.932Z,1.56
2023-01-29T18:25:05.829Z,1.58
2023-01-29T18:27:18.839Z,1.62
2023-01-29T18:29:31.997Z,1.67
2023-01-29T18:31:44.952Z,1.72
2023-01-29T18:33:58.002Z,1.76
2023-01-29T18:36:12.832Z,1.81
2023-01-29T18:38:26.621Z,1.84
2023-01-29T18:40:39.643Z,1.87
2023-01-29T18:42:52.873Z,1.93
2023-01-29T18:45:05.971Z,1.98
2023-01-29T18:47:19.312Z,2.02
2023-01-29T18:49:32.380Z,2.05
2023-01-29T18:51:45.760Z,2.09
2023-01-29T18:53:58.708Z,2.12
2023-01-29T18:56:13.459Z,2.14
2023-01-29T18:58:34.811Z,2.16
2023-01-29T19:00:51.463Z,2.21
2023-01-29T19:03:05.115Z,2.23
2023-01-29T19:05:20.311Z,2.25
2023-01-29T19:07:34.552Z,2.26
2023-01-29T19:09:48.518Z,2.29
2023-01-29T19:12:01.431Z,2.31
2023-01-29T19:14:14.568Z,2.34
2023-01-29T19:16:28.448Z,2.37
2023-01-29T19:18:42.628Z,2.41
2023-01-29T19:20:58.891Z,2.44
2023-01-29T19:23:11.924Z,2.45
2023-01-29T19:25:25.189Z,2.47
2023-01-29T19:27:38.359Z,2.50
2023-01-29T19:29:52.110Z,2.54
2023-01-29T19:32:05.186Z,2.60
2023-01-29T19:34:19.136Z,2.65
2023-01-29T19:36:32.181Z,2.70
2023-01-29T19:38:45.981Z,2.74
2023-01-29T19:40:59.211Z,2.78
2023-01-29T19:43:12.451Z,2.82
2023-01-29T19:45:42.096Z,2.85
2023-01-29T19:48:00.345Z,2.90
2023-01-29T19:50:15.704Z,2.93
2023-01-29T19:52:52.552Z,2.99
2023-01-29T19:55:06.014Z,3.03
2023-01-29T19:57:19.023Z,3.10
2023-01-29T19:59:32.082Z,3.16
2023-01-29T20:01:45.209Z,3.19
2023-01-29T20:04:01.708Z,3.23
2023-01-29T20:06:16.683Z,3.29
2023-01-29T20:08:30.215Z,3.33
2023-01-29T20:10:43.381Z,3.37
2023-01-29T20:12:56.981Z,3.41
2023-01-29T20:15:12.245Z,3.45
2023-01-29T20:17:25.312Z,3.48
2023-01-29T20:19:38.494Z,3.54
2023-01-29T20:21:52.480Z,3.54
2023-01-29T20:24:05.546Z,3.55
2023-01-29T20:26:20.839Z,3.58
2023-01-29T20:28:33.926Z,3.59
2023-01-29T20:30:48.130Z,3.61
2023-01-29T20:33:05.154Z,3.67
2023-01-29T20:35:18.434Z,3.72
2023-01-29T20:37:31.465Z,3.76
2023-01-29T20:39:44.374Z,3.77
2023-01-29T20:41:58.483Z,3.74
2023-01-29T20:44:11.809Z,3.72
2023-01-29T20:46:25.194Z,3.70
2023-01-29T20:48:38.546Z,3.71
2023-01-29T20:50:51.894Z,3.73
2023-01-29T20:53:06.061Z,3.76
2023-01-29T20:55:19.254Z,3.80
2023-01-29T20:57:32.519Z,3.83
2023-01-29T20:59:46.251Z,3.87
2023-01-29T21:01:59.546Z,3.90
2023-01-29T21:04:12.692Z,3.93
2023-01-29T21:06:26.061Z,3.97
2023-01-29T21:08:39.304Z,3.98
2023-01-29T21:10:55.138Z,4.00
2023-01-29T21:13:08.891Z,4.04
2023-01-29T21:15:22.629Z,4.08
2023-01-29T21:17:35.981Z,4.14
2023-01-29T21:19:49.340Z,4.19
2023-01-29T21:22:02.419Z,4.26
2023-01-29T21:24:16.261Z,4.31
2023-01-29T21:26:29.404Z,4.32
2023-01-29T21:28:42.390Z,4.33
2023-01-29T21:31:05.127Z,4.37
2023-01-29T21:33:18.288Z,4.40
2023-01-29T21:35:31.129Z,4.40
2023-01-29T21:37:44.410Z,4.39
2023-01-29T21:39:57.309Z,4.36
2023-01-29T21:42:26.829Z,4.42
2023-01-29T21:44:40.553Z,4.52
2023-01-29T21:46:54.088Z,4.61
2023-01-29T21:49:07.531Z,4.63
2023-01-29T21:51:20.940Z,4.68
2023-01-29T21:53:34.298Z,4.70
2023-01-29T21:55:49.109Z,4.72
2023-01-29T21:58:02.338Z,4.73
2023-01-29T22:00:17.757Z,4.83
2023-01-29T22:02:33.205Z,4.91
2023-01-29T22:04:46.459Z,4.95
2023-01-29T22:06:59.678Z,4.97
2023-01-29T22:09:14.789Z,4.97
2023-01-29T22:11:28.383Z,5.02
2023-01-29T22:13:41.434Z,5.03
2023-01-29T22:15:57.610Z,4.96
2023-01-29T22:18:11.048Z,4.91
2023-01-29T22:20:30.840Z,4.84
2023-01-29T22:22:44.390Z,4.80
2023-01-29T22:24:59.545Z,4.76
2023-01-29T22:27:12.375Z,4.74
2023-01-29T22:29:25.804Z,4.71
2023-01-29T22:31:39.259Z,4.66
2023-01-29T22:33:54.549Z,4.63
2023-01-29T22:36:08.700Z,4.68
2023-01-29T22:38:23.911Z,4.80
2023-01-29T22:40:39.910Z,4.82
2023-01-29T22:42:52.899Z,4.77
2023-01-29T22:45:05.765Z,4.73
2023-01-29T22:47:18.875Z,4.77
2023-01-29T22:49:32.652Z,4.83
2023-01-29T22:51:45.583Z,4.85
2023-01-29T22:54:00.681Z,4.80
2023-01-29T22:56:14.996Z,4.73
2023-01-29T22:58:28.202Z,4.71
2023-01-29T23:00:41.640Z,4.75
2023-01-29T23:02:54.959Z,4.74
2023-01-29T23:05:08.198Z,4.72
2023-01-29T23:07:21.018Z,4.71
2023-01-29T23:09:34.788Z,4.73
2023-01-29T23:11:48.299Z,4.77
2023-01-29T23:14:01.782Z,4.81
2023-01-29T23:16:15.468Z,4.82
2023-01-29T23:18:28.652Z,4.86
2023-01-29T23:20:42.018Z,4.91
2023-01-29T23:22:55.200Z,5.00
2023-01-29T23:25:08.597Z,4.99
2023-01-29T23:27:22.637Z,4.93
2023-01-29T23:29:35.598Z,4.86
2023-01-29T23:31:48.895Z,4.78
2023-01-29T23:34:02.026Z,4.72
2023-01-29T23:36:15.540Z,4.69
2023-01-29T23:38:28.469Z,4.66
2023-01-29T23:40:41.359Z,4.63
2023-01-29T23:42:56.200Z,4.58
2023-01-29T23:45:09.779Z,4.55
2023-01-29T23:47:23.041Z,4.52
2023-01-29T23:49:35.999Z,4.52
2023-01-29T23:51:50.450Z,4.52
2023-01-29T23:54:03.439Z,4.51
2023-01-29T23:56:16.861Z,4.48
2023-01-29T23:58:29.930Z,4.43
